Time;durP1;ratioP1;P1;durP2;ratioP2;P2;SDS_P1;SDS_P2;PMS_P1;PMS_P2;Temp;Humidity;BMP_temperature;BMP_pressure;BME280_temperature;BME280_humidity;BME280_pressure;Samples;Min_cycle;Max_cycle;Signal;HPM_P1;HPM_P2
2021/07/01 05:24:23;;;;;;;;;18.67;17.00;;;;;16.04;67.37;101523.69;5883162;23;46815;-88
2021/07/01 05:26:49;;;;;;;;;17.33;15.00;;;;;16.12;67.13;101522.88;4882076;29;45263;-86
2021/07/01 05:29:15;;;;;;;;;15.33;14.00;;;;;16.19;67.62;101524.69;4881940;29;45989;-79
2021/07/01 05:31:40;;;;;;;;;16.00;15.33;;;;;16.22;67.49;101530.03;4882604;29;45600;-80
2021/07/01 05:34:06;;;;;;;;;25.67;16.33;;;;;16.26;67.68;101541.53;4882426;29;45370;-80
2021/07/01 05:36:31;;;;;;;;;14.67;13.33;;;;;16.26;67.46;101526.50;4882327;29;45356;-79
2021/07/01 05:38:57;;;;;;;;;20.00;15.00;;;;;16.28;67.58;101539.78;4882277;29;45750;-79
2021/07/01 05:41:22;;;;;;;;;19.33;17.33;;;;;16.29;67.19;101542.44;4882221;29;45403;-82
2021/07/01 05:43:47;;;;;;;;;20.67;18.00;;;;;16.29;67.63;101547.75;4882543;29;45323;-80
2021/07/01 05:46:13;;;;;;;;;19.67;18.33;;;;;16.31;66.85;101550.41;4882483;29;45303;-82
2021/07/01 05:48:38;;;;;;;;;21.33;17.00;;;;;16.30;66.65;101552.19;4882086;29;45295;-80
2021/07/01 05:51:06;;;;;;;;;23.67;18.67;;;;;16.33;66.91;101546.00;4882020;29;45213;-83
2021/07/01 05:53:42;;;;;;;;;19.67;15.00;;;;;16.34;67.02;101546.88;4882015;29;45327;-81
2021/07/01 05:56:07;;;;;;;;;19.00;16.00;;;;;16.38;67.67;101541.63;4882340;29;45384;-80
2021/07/01 05:58:33;;;;;;;;;17.67;16.00;;;;;16.45;67.61;101542.53;4881815;29;47197;-80
2021/07/01 06:00:58;;;;;;;;;19.67;18.00;;;;;16.49;67.33;101554.94;4883035;29;45209;-82
2021/07/01 06:03:23;;;;;;;;;19.67;17.00;;;;;16.54;66.98;101545.22;4885444;29;45793;-83
2021/07/01 06:05:57;;;;;;;;;14.50;14.50;;;;;16.61;67.37;101550.56;4885539;29;45422;-82
2021/07/01 06:08:23;;;;;;;;;16.67;16.67;;;;;16.65;66.36;101552.38;4885286;29;47191;-82
2021/07/01 06:10:50;;;;;;;;;19.00;16.67;;;;;16.67;66.47;101546.19;4887725;29;45715;-91
2021/07/01 06:13:22;;;;;;;;;19.00;16.00;;;;;16.71;66.76;101544.44;4886680;29;45362;-89
2021/07/01 06:15:50;;;;;;;;;19.33;15.67;;;;;16.74;67.42;101540.91;4885391;29;45575;-89
2021/07/01 06:18:15;;;;;;;;;14.33;13.67;;;;;16.77;66.90;101546.25;4886868;29;45421;-88
2021/07/01 06:20:41;;;;;;;;;18.67;16.67;;;;;16.84;66.72;101541.81;4887634;29;45334;-88
2021/07/01 06:23:06;;;;;;;;;20.33;15.67;;;;;16.88;66.49;101538.31;4887654;29;45308;-88
2021/07/01 06:25:32;;;;;;;;;16.00;16.00;;;;;17.00;66.61;101551.66;4886780;29;45279;-88
2021/07/01 06:28:00;;;;;;;;;15.67;13.00;;;;;17.01;66.28;101541.91;4886133;29;45418;-88
2021/07/01 06:30:26;;;;;;;;;15.00;13.50;;;;;17.03;66.21;101534.81;4886262;29;45216;-89
2021/07/01 06:32:53;;;;;;;;;13.33;12.00;;;;;17.07;65.22;101546.38;4885058;29;45333;-89
2021/07/01 06:35:21;;;;;;;;;13.67;13.67;;;;;17.17;65.02;101558.84;4887313;29;45217;-89
2021/07/01 06:37:49;;;;;;;;;15.67;14.67;;;;;17.19;64.79;101562.38;4887060;29;46319;-88
2021/07/01 06:40:16;;;;;;;;;14.67;11.00;;;;;17.15;64.98;101543.75;4887012;29;45412;-89
2021/07/01 06:42:48;;;;;;;;;13.67;12.00;;;;;17.24;64.73;101560.59;4886713;29;45332;-88
2021/07/01 06:45:15;;;;;;;;;14.67;13.00;;;;;17.28;64.27;101561.50;4887767;29;45304;-88
2021/07/01 06:47:52;;;;;;;;;15.67;15.00;;;;;17.30;64.43;101553.56;4901860;29;47667;-88
2021/07/01 06:50:22;;;;;;;;;15.00;14.33;;;;;17.33;64.22;101557.09;4885642;29;45314;-90
2021/07/01 06:52:48;;;;;;;;;11.67;10.00;;;;;17.37;63.88;101560.63;4887368;29;45327;-90
2021/07/01 06:55:15;;;;;;;;;12.00;9.67;;;;;17.35;63.88;101559.75;4887187;29;45222;-89
2021/07/01 06:57:44;;;;;;;;;13.00;13.00;;;;;17.43;64.57;101559.78;4884809;29;45576;-89
2021/07/01 07:00:13;;;;;;;;;14.00;12.33;;;;;17.42;63.89;101558.88;4887171;29;45286;-90
2021/07/01 07:02:40;;;;;;;;;12.67;12.67;;;;;17.46;64.16;101565.97;4887139;29;45247;-88
2021/07/01 07:05:10;;;;;;;;;12.00;10.33;;;;;17.50;63.45;101569.53;4889378;29;45524;-89
2021/07/01 07:07:36;;;;;;;;;15.33;13.33;;;;;17.51;62.88;101570.44;4888645;29;45603;-89
2021/07/01 07:10:05;;;;;;;;;13.33;11.00;;;;;17.51;62.89;101567.75;4888176;29;45403;-89
2021/07/01 07:12:36;;;;;;;;;12.67;12.67;;;;;17.50;62.46;101576.59;4885884;29;45213;-89
2021/07/01 07:15:01;;;;;;;;;14.33;11.00;;;;;17.47;62.60;101573.06;4886859;29;45341;-89
2021/07/01 07:17:35;;;;;;;;;13.67;12.00;;;;;17.46;62.52;101573.97;4885535;29;47267;-89
2021/07/01 07:20:01;;;;;;;;;15.00;13.00;;;;;17.47;62.56;101578.38;4886709;29;45347;-90
2021/07/01 07:22:31;;;;;;;;;13.00;12.33;;;;;17.48;63.26;101584.59;4885621;29;45351;-88
2021/07/01 07:25:03;;;;;;;;;14.33;14.00;;;;;17.45;63.69;101585.47;4885460;29;45362;-90
2021/07/01 07:27:31;;;;;;;;;16.33;14.67;;;;;17.45;63.42;101581.94;4885198;29;45641;-87
2021/07/01 07:29:57;;;;;;;;;15.33;15.33;;;;;17.45;63.41;101582.81;4884994;29;45317;-89
2021/07/01 07:32:26;;;;;;;;;17.67;14.00;;;;;17.43;62.79;101579.25;4885815;29;45139;-89
2021/07/01 07:34:52;;;;;;;;;17.00;13.33;;;;;17.39;62.88;101569.50;4899772;29;45260;-89
2021/07/01 07:37:18;;;;;;;;;14.67;14.67;;;;;17.39;62.57;101569.50;4885538;29;46127;-88
2021/07/01 07:39:45;;;;;;;;;13.00;13.00;;;;;17.45;62.51;101571.31;4885171;29;45486;-89
2021/07/01 07:42:12;;;;;;;;;14.33;13.00;;;;;17.39;63.09;101572.16;4884665;29;45335;-89
2021/07/01 07:44:39;;;;;;;;;15.33;15.33;;;;;17.40;62.49;101568.63;4883232;29;45246;-88
2021/07/01 07:47:06;;;;;;;;;16.00;16.00;;;;;17.45;62.42;101579.28;4884305;29;45299;-89
2021/07/01 07:49:32;;;;;;;;;21.33;18.00;;;;;17.47;62.95;101573.06;4884922;29;45462;-90
2021/07/01 07:52:03;;;;;;;;;24.00;19.00;;;;;17.45;62.25;101566.00;4884054;29;45296;-89
2021/07/01 07:54:33;;;;;;;;;16.67;15.00;;;;;17.53;63.16;101576.63;4893542;29;45333;-88
2021/07/01 07:57:01;;;;;;;;;17.67;17.00;;;;;17.47;63.08;101559.78;4892035;29;46270;-89
2021/07/01 07:59:31;;;;;;;;;15.00;15.00;;;;;17.60;62.96;101575.75;4891048;29;45245;-88
2021/07/01 08:02:04;;;;;;;;;18.00;16.33;;;;;17.62;63.11;101575.75;4885239;29;45330;-89
2021/07/01 08:04:33;;;;;;;;;23.67;21.33;;;;;17.67;63.53;101574.88;4884670;29;46076;-88
2021/07/01 08:06:59;;;;;;;;;21.00;17.00;;;;;17.80;63.15;101574.88;4884284;29;48175;-87
2021/07/01 08:09:27;;;;;;;;;23.33;21.00;;;;;17.85;62.26;101581.09;4883509;29;45317;-88
2021/07/01 08:11:54;;;;;;;;;24.33;20.00;;;;;17.93;62.78;101587.31;4900115;29;45319;-89
2021/07/01 08:14:22;;;;;;;;;24.67;21.67;;;;;18.00;62.80;101574.88;4884961;29;45425;-87
2021/07/01 08:16:48;;;;;;;;;20.33;19.33;;;;;18.14;62.09;101571.34;4884173;29;46565;-90
2021/07/01 08:19:13;;;;;;;;;26.00;21.00;;;;;18.24;62.16;101566.91;4883906;29;45319;-88
2021/07/01 08:21:39;;;;;;;;;19.00;17.00;;;;;18.36;62.54;101556.25;4884092;29;45207;-88
2021/07/01 08:24:06;;;;;;;;;17.67;17.67;;;;;18.55;62.53;101563.31;4884242;29;45316;-89
2021/07/01 08:26:32;;;;;;;;;22.33;20.00;;;;;18.68;62.15;101564.16;4882369;29;48619;-89
2021/07/01 08:28:58;;;;;;;;;22.33;19.67;;;;;18.80;61.95;101548.16;4883742;29;45256;-87
2021/07/01 08:31:23;;;;;;;;;17.00;17.00;;;;;18.95;61.88;101552.50;4883994;29;45374;-89
2021/07/01 08:33:50;;;;;;;;;19.33;17.33;;;;;19.06;62.58;101563.13;4883941;29;45324;-88
2021/07/01 08:36:20;;;;;;;;;18.00;15.67;;;;;19.12;61.60;101554.19;4883893;29;45562;-88
2021/07/01 08:38:47;;;;;;;;;26.33;18.67;;;;;19.15;61.50;101550.66;4883677;29;45318;-89
2021/07/01 08:41:18;;;;;;;;;20.33;18.00;;;;;19.38;61.71;101544.31;4883750;29;45328;-88
2021/07/01 08:43:55;;;;;;;;;19.00;17.33;;;;;19.63;61.22;101547.69;4883919;29;45325;-89
2021/07/01 08:46:26;;;;;;;;;16.33;16.33;;;;;19.94;60.34;101556.34;4886836;29;46441;-90
2021/07/01 08:49:04;;;;;;;;;18.00;14.67;;;;;20.26;60.71;101544.53;4886391;29;45457;-89
2021/07/01 08:51:33;;;;;;;;;21.00;19.00;;;;;20.41;59.64;101556.81;4884015;29;45272;-89
2021/07/01 08:54:30;;;;;;;;;16.67;15.33;;;;;20.41;59.10;101553.28;4883956;29;45351;-91
2021/07/01 08:56:57;;;;;;;;;20.67;20.67;;;;;20.30;59.18;101546.28;4883827;29;45597;-91
2021/07/01 08:59:26;;;;;;;;;20.00;18.00;;;;;20.35;58.82;101554.22;4883825;29;45341;-90
2021/07/01 09:02:01;;;;;;;;;23.00;18.67;;;;;20.35;58.35;101556.88;4884202;29;45284;-90
2021/07/01 09:04:37;;;;;;;;;19.67;15.00;;;;;20.41;57.82;101558.63;4885005;29;45312;-89
2021/07/01 09:07:04;;;;;;;;;14.67;13.33;;;;;20.46;56.38;101556.78;4884653;29;45418;-90
2021/07/01 09:09:35;;;;;;;;;15.67;15.33;;;;;20.43;56.71;101547.00;4883160;29;45522;-90
2021/07/01 09:12:08;;;;;;;;;16.33;16.33;;;;;20.48;55.64;101541.63;4888122;29;45268;-88
2021/07/01 09:14:36;;;;;;;;;18.33;17.67;;;;;20.47;56.47;101551.41;4888433;29;45369;-88
2021/07/01 09:17:12;;;;;;;;;18.67;17.33;;;;;20.30;56.80;101526.69;4891236;29;46354;-89
2021/07/01 09:19:39;;;;;;;;;17.33;17.33;;;;;20.27;57.17;101546.28;4891360;29;45394;-88
2021/07/01 09:22:11;;;;;;;;;22.00;19.00;;;;;20.21;56.87;101546.34;4900730;29;45431;-87
2021/07/01 09:24:37;;;;;;;;;20.00;20.00;;;;;20.17;57.18;101553.50;4883487;29;45221;-87
2021/07/01 09:27:08;;;;;;;;;19.67;17.67;;;;;20.08;57.66;101538.47;4883270;29;45235;-88
2021/07/01 09:29:34;;;;;;;;;18.67;17.33;;;;;20.08;57.77;101566.91;4881876;29;45290;-88
2021/07/01 09:32:00;;;;;;;;;21.33;19.67;;;;;20.01;57.75;101552.72;4897560;29;45320;-87
2021/07/01 09:34:26;;;;;;;;;19.33;17.67;;;;;19.95;58.45;101555.44;4883632;29;45423;-86
2021/07/01 09:36:55;;;;;;;;;21.67;17.67;;;;;19.95;58.09;101559.00;4882237;29;46593;-87
2021/07/01 09:39:23;;;;;;;;;17.00;16.33;;;;;19.97;58.34;101551.88;4883440;29;45337;-88
2021/07/01 09:41:49;;;;;;;;;22.67;20.67;;;;;19.99;57.81;101551.84;4885713;29;45491;-89
2021/07/01 09:44:16;;;;;;;;;17.33;17.00;;;;;20.17;58.76;101560.63;4884400;29;45328;-87
2021/07/01 09:46:46;;;;;;;;;20.67;19.00;;;;;20.18;58.63;101557.94;4882935;29;46564;-88
2021/07/01 09:49:20;;;;;;;;;18.00;18.00;;;;;20.22;58.85;101559.66;4883482;29;45392;-89
2021/07/01 09:51:53;;;;;;;;;18.67;17.67;;;;;20.24;58.55;101557.88;4881675;29;45323;-88
2021/07/01 09:54:20;;;;;;;;;18.67;16.67;;;;;20.29;58.06;101563.19;4883081;29;45345;-89
2021/07/01 09:56:52;;;;;;;;;23.33;20.33;;;;;20.26;58.29;101555.22;4888389;29;45617;-86
2021/07/01 09:59:23;;;;;;;;;19.33;17.00;;;;;20.38;57.85;101563.97;4894086;29;45317;-86
2021/07/01 10:01:49;;;;;;;;;16.00;16.00;;;;;20.40;58.58;101547.03;4892279;29;45401;-87
2021/07/01 10:04:16;;;;;;;;;19.00;17.33;;;;;20.48;58.06;101560.31;4887086;29;45437;-88
2021/07/01 10:06:41;;;;;;;;;22.33;18.33;;;;;20.50;56.85;101558.50;4881895;29;48579;-86
2021/07/01 10:09:07;;;;;;;;;18.33;18.00;;;;;20.47;57.02;101559.41;4882984;29;45689;-87
2021/07/01 10:11:35;;;;;;;;;18.33;16.67;;;;;20.52;56.42;101566.53;4881886;29;45361;-89
2021/07/01 10:14:14;;;;;;;;;20.67;16.00;;;;;20.51;57.21;101554.94;4881301;29;45352;-87
2021/07/01 10:16:40;;;;;;;;;20.67;19.00;;;;;20.53;57.30;101552.25;4882717;29;45256;-89
2021/07/01 10:19:10;;;;;;;;;24.00;19.00;;;;;20.54;57.37;101548.69;4882292;29;45573;-90
2021/07/01 10:21:37;;;;;;;;;16.67;16.67;;;;;20.51;57.99;101538.91;4882354;29;45491;-86
2021/07/01 10:24:10;;;;;;;;;16.33;14.67;;;;;20.64;57.35;101552.13;4882855;29;45383;-88
2021/07/01 10:26:53;;;;;;;;;19.67;18.00;;;;;20.62;57.08;101549.50;4881701;29;46451;-88
2021/07/01 10:29:19;;;;;;;;;16.00;16.00;;;;;20.64;56.57;101554.81;4882371;29;45256;-89
2021/07/01 10:31:51;;;;;;;;;17.00;16.00;;;;;20.66;56.41;101550.31;4882905;29;45426;-88
2021/07/01 10:34:17;;;;;;;;;19.33;17.00;;;;;20.65;57.73;101546.75;4882467;29;45291;-87
2021/07/01 10:36:43;;;;;;;;;19.00;18.33;;;;;20.62;57.90;101543.25;4882026;29;45402;-86
2021/07/01 10:39:08;;;;;;;;;25.33;22.67;;;;;20.69;56.70;101550.28;4882149;29;45257;-87
2021/07/01 10:41:41;;;;;;;;;23.33;20.00;;;;;20.71;57.48;101543.13;4882466;29;45367;-87
2021/07/01 10:44:20;;;;;;;;;28.00;20.67;;;;;20.80;56.12;101548.38;4882521;29;45449;-88
2021/07/01 10:46:48;;;;;;;;;23.00;21.00;;;;;20.92;57.20;101566.03;4905547;29;45280;-86
2021/07/01 10:49:15;;;;;;;;;20.00;18.00;;;;;20.96;56.56;101558.88;4892986;29;45364;-88
2021/07/01 10:52:03;;;;;;;;;20.00;18.67;;;;;21.00;56.92;101557.97;4887963;29;45261;-88
2021/07/01 10:54:29;;;;;;;;;27.33;21.00;;;;;21.00;56.30;101563.31;4886994;29;45235;-87
2021/07/01 10:57:05;;;;;;;;;23.00;18.67;;;;;21.08;56.93;101571.22;4889303;29;47133;-88
2021/07/01 10:59:47;;;;;;;;;22.00;19.00;;;;;21.10;55.55;101563.16;4889304;29;45420;-88
2021/07/01 11:02:21;;;;;;;;;18.67;18.33;;;;;21.14;57.01;101560.44;4885772;29;45304;-89
2021/07/01 11:04:53;;;;;;;;;19.33;18.00;;;;;21.11;55.78;101541.75;4884138;29;45217;-88
2021/07/01 11:07:21;;;;;;;;;22.33;18.67;;;;;21.13;53.79;101547.97;4885011;29;46543;-89
2021/07/01 11:09:51;;;;;;;;;21.33;21.00;;;;;21.05;55.13;101533.81;4885289;29;45280;-90
2021/07/01 11:12:17;;;;;;;;;22.67;19.33;;;;;21.10;56.46;101550.69;4883894;29;45354;-87
2021/07/01 11:14:46;;;;;;;;;22.67;20.00;;;;;21.17;56.11;101560.38;4885004;29;45332;-89
2021/07/01 11:17:11;;;;;;;;;19.67;17.67;;;;;21.22;56.38;101562.09;4885199;29;45403;-88
2021/07/01 11:19:42;;;;;;;;;20.33;18.33;;;;;21.29;56.32;101558.44;4899171;29;45810;-87
2021/07/01 11:22:08;;;;;;;;;24.33;21.00;;;;;21.32;56.94;101552.19;4885401;29;45336;-88
2021/07/01 11:24:39;;;;;;;;;22.33;19.33;;;;;21.47;55.83;101569.78;4885213;29;45312;-87
2021/07/01 11:27:04;;;;;;;;;24.00;18.00;;;;;21.55;55.92;101567.00;4885419;29;45392;-86
2021/07/01 11:29:34;;;;;;;;;19.00;17.33;;;;;21.55;55.25;101549.16;4899175;29;45461;-86
2021/07/01 11:32:00;;;;;;;;;25.33;21.67;;;;;21.65;54.57;101560.59;4885062;29;45283;-87
2021/07/01 11:34:42;;;;;;;;;20.67;20.33;;;;;21.61;54.70;101557.09;4883597;29;45459;-87
2021/07/01 11:37:07;;;;;;;;;19.67;17.33;;;;;21.62;55.60;101553.47;4899038;29;46264;-87
2021/07/01 11:39:34;;;;;;;;;20.00;17.33;;;;;21.69;55.32;101556.06;4884315;29;45506;-87
2021/07/01 11:42:04;;;;;;;;;23.67;21.00;;;;;21.68;55.69;101563.19;4882728;29;45369;-82
2021/07/01 11:44:33;;;;;;;;;18.00;17.33;;;;;21.64;55.91;101572.19;4884433;29;45392;-81
2021/07/01 11:47:01;;;;;;;;;15.67;11.67;;;;;21.62;54.92;101561.50;4883569;29;45357;-81
2021/07/01 11:49:38;;;;;;;;;16.33;15.00;;;;;21.60;55.55;101568.69;4883808;29;45233;-81
2021/07/01 11:52:04;;;;;;;;;18.00;17.00;;;;;21.60;54.27;101567.78;4883947;29;45575;-81
2021/07/01 11:54:29;;;;;;;;;19.33;17.33;;;;;21.58;54.90;101561.56;4883809;29;45415;-81
2021/07/01 11:56:56;;;;;;;;;19.67;17.00;;;;;21.62;56.10;101571.31;4883525;29;45453;-81
2021/07/01 11:59:27;;;;;;;;;19.67;19.00;;;;;21.69;55.78;101554.28;4881873;29;45451;-81
2021/07/01 12:01:53;;;;;;;;;15.00;15.00;;;;;21.77;55.10;101558.59;4883811;29;45243;-81
2021/07/01 12:04:25;;;;;;;;;18.33;16.00;;;;;21.81;54.42;101560.31;4883702;29;45215;-81
2021/07/01 12:07:01;;;;;;;;;17.67;16.33;;;;;21.81;53.51;101554.97;4883349;29;45296;-82
2021/07/01 12:09:28;;;;;;;;;19.33;16.67;;;;;21.77;54.32;101553.25;4883183;29;45320;-83
2021/07/01 12:12:03;;;;;;;;;27.67;20.33;;;;;21.79;54.54;101560.34;4883588;29;45410;-82
2021/07/01 12:14:30;;;;;;;;;17.00;17.00;;;;;21.81;55.16;101561.22;4865030;29;45175;-82
2021/07/01 12:16:56;;;;;;;;;20.33;18.67;;;;;21.85;55.60;101562.06;4864430;29;46008;-82
2021/07/01 12:19:47;;;;;;;;;19.33;16.00;;;;;21.90;55.70;101562.00;4864770;29;45393;-81
2021/07/01 12:22:45;;;;;;;;;18.33;17.33;;;;;21.91;55.11;101556.63;4864561;29;45302;-82
2021/07/01 12:25:18;;;;;;;;;23.67;18.33;;;;;21.92;55.28;101557.50;4871938;29;45462;-82
2021/07/01 12:27:44;;;;;;;;;19.33;17.67;;;;;21.88;54.52;101555.78;4882095;29;47148;-82
2021/07/01 12:30:10;;;;;;;;;18.33;17.00;;;;;21.89;55.48;101558.47;4882209;29;45366;-82
2021/07/01 12:32:37;;;;;;;;;18.33;18.33;;;;;21.89;54.36;101555.78;4883057;29;45381;-81
2021/07/01 12:35:40;;;;;;;;;21.00;20.33;;;;;21.92;55.51;101557.50;4882655;29;45437;-82
2021/07/01 12:38:12;;;;;;;;;23.67;21.00;;;;;21.91;55.46;101551.28;4882720;29;46241;-82
2021/07/01 12:41:00;;;;;;;;;19.33;17.33;;;;;21.93;54.07;101556.59;4882758;29;45405;-82
2021/07/01 12:43:44;;;;;;;;;18.67;18.00;;;;;21.96;54.94;101559.22;4882893;29;45444;-82
2021/07/01 12:46:11;;;;;;;;;16.67;14.33;;;;;22.01;55.79;101549.31;4882877;29;45542;-82
2021/07/01 12:48:40;;;;;;;;;20.67;18.33;;;;;22.05;55.02;101548.34;4882789;29;45343;-81
2021/07/01 12:51:43;;;;;;;;;21.67;18.33;;;;;22.12;54.80;101548.25;4882867;29;45395;-82
2021/07/01 12:54:15;;;;;;;;;17.67;17.00;;;;;22.13;53.69;101540.16;4883173;29;45461;-81
2021/07/01 12:56:40;;;;;;;;;18.67;18.67;;;;;22.13;54.49;101550.00;4882939;29;45352;-81
2021/07/01 12:59:06;;;;;;;;;17.67;16.67;;;;;22.13;54.84;101547.31;4882381;29;45893;-82
2021/07/01 13:01:31;;;;;;;;;19.67;18.33;;;;;22.13;52.15;101544.63;4882601;29;45455;-82
2021/07/01 13:03:57;;;;;;;;;19.67;17.67;;;;;22.11;54.05;101536.63;4882755;29;45348;-82
2021/07/01 13:06:24;;;;;;;;;17.00;16.00;;;;;22.18;53.07;101532.06;4882758;29;45519;-83
2021/07/01 13:08:50;;;;;;;;;19.33;17.67;;;;;22.27;54.08;101528.34;4882787;29;46470;-82
2021/07/01 13:11:15;;;;;;;;;17.67;16.33;;;;;22.35;54.87;101528.19;4881150;29;45368;-82
2021/07/01 13:13:41;;;;;;;;;15.33;13.33;;;;;22.40;54.25;101526.31;4881261;29;45459;-82
2021/07/01 13:16:07;;;;;;;;;15.00;15.00;;;;;22.41;53.58;101528.94;4882329;29;45305;-83
2021/07/01 13:18:32;;;;;;;;;22.00;18.67;;;;;22.44;53.86;101534.22;4881988;29;46215;-82
2021/07/01 13:21:11;;;;;;;;;20.00;16.33;;;;;22.43;54.87;101534.25;4881003;29;45365;-83
2021/07/01 13:23:37;;;;;;;;;19.33;18.33;;;;;22.44;53.39;101530.69;4882626;29;45319;-83
2021/07/01 13:26:09;;;;;;;;;18.33;13.33;;;;;22.46;54.96;101536.91;4882278;29;46552;-83
2021/07/01 13:28:36;;;;;;;;;16.00;13.00;;;;;22.47;53.94;101530.59;4882302;29;46505;-83
2021/07/01 13:31:01;;;;;;;;;17.00;14.00;;;;;22.47;52.71;101524.34;4882146;29;45419;-83
2021/07/01 13:33:27;;;;;;;;;18.33;16.00;;;;;22.40;54.17;101529.84;4882253;29;45447;-83
2021/07/01 13:35:52;;;;;;;;;19.00;17.33;;;;;22.39;54.30;101524.53;4882575;29;45312;-83
2021/07/01 13:38:23;;;;;;;;;15.33;14.33;;;;;22.38;54.44;101523.63;4882124;29;45322;-82
2021/07/01 13:40:51;;;;;;;;;16.67;15.00;;;;;22.34;54.01;101521.94;4882070;29;45245;-83
2021/07/01 13:43:18;;;;;;;;;17.67;16.33;;;;;22.33;54.68;101518.41;4882102;29;45335;-83
2021/07/01 13:45:49;;;;;;;;;19.67;17.67;;;;;22.36;54.95;101519.25;4882140;29;45308;-83
2021/07/01 13:48:26;;;;;;;;;16.33;16.00;;;;;22.39;55.84;101527.19;4882026;29;46170;-84
2021/07/01 13:50:57;;;;;;;;;15.67;14.67;;;;;22.36;54.64;101511.22;4881749;29;45430;-83
2021/07/01 13:53:35;;;;;;;;;18.00;18.00;;;;;22.43;54.70;101512.84;4878704;29;45374;-82
2021/07/01 13:56:03;;;;;;;;;13.00;12.00;;;;;22.45;54.30;101513.69;4863368;29;45452;-82
2021/07/01 13:58:34;;;;;;;;;16.00;16.00;;;;;22.48;54.47;101513.63;4862586;29;46218;-82
2021/07/01 14:01:04;;;;;;;;;16.33;16.00;;;;;22.51;53.88;101512.66;4863098;29;45283;-82
2021/07/01 14:03:34;;;;;;;;;12.33;12.33;;;;;22.51;55.11;101513.56;4881722;29;45197;-82
2021/07/01 14:06:08;;;;;;;;;18.00;14.33;;;;;22.52;54.42;101504.63;4900977;29;45328;-82
2021/07/01 14:08:38;;;;;;;;;17.33;17.33;;;;;22.52;54.65;101501.06;4900567;28;46276;-82
2021/07/01 14:11:12;;;;;;;;;19.00;16.67;;;;;22.58;55.02;101513.44;4900361;29;45339;-83
2021/07/01 14:14:01;;;;;;;;;17.00;15.33;;;;;22.61;55.42;101500.00;4900543;28;45364;-82
2021/07/01 14:16:30;;;;;;;;;16.33;16.33;;;;;22.62;55.52;101504.41;4900773;28;45429;-82
2021/07/01 14:19:02;;;;;;;;;17.67;17.00;;;;;22.64;54.34;101510.63;4900337;28;46404;-82
2021/07/01 14:21:38;;;;;;;;;11.67;11.00;;;;;22.67;55.27;101497.22;4899378;29;45487;-81
2021/07/01 14:24:13;;;;;;;;;13.67;13.00;;;;;22.69;55.64;101500.75;4893876;29;45369;-82
2021/07/01 14:26:45;;;;;;;;;16.00;15.00;;;;;22.73;55.99;101497.06;4884435;29;45343;-81
2021/07/01 14:29:11;;;;;;;;;17.33;16.00;;;;;22.73;54.17;101497.06;4884781;29;46106;-80
2021/07/01 14:31:38;;;;;;;;;15.00;15.00;;;;;22.73;54.96;101498.88;4884728;29;45292;-83
2021/07/01 14:34:03;;;;;;;;;16.33;14.67;;;;;22.70;56.33;101494.44;4884805;29;45366;-83
2021/07/01 14:36:31;;;;;;;;;16.33;15.33;;;;;22.68;55.39;101493.59;4884509;29;45243;-83
2021/07/01 14:39:09;;;;;;;;;16.00;15.00;;;;;22.60;55.20;101483.03;4884418;29;46898;-83
2021/07/01 14:41:38;;;;;;;;;18.33;14.00;;;;;22.58;54.43;101483.97;4884529;29;45370;-82
2021/07/01 14:44:04;;;;;;;;;19.00;16.00;;;;;22.58;55.38;101489.31;4884861;29;45236;-82
2021/07/01 14:46:48;;;;;;;;;14.00;12.00;;;;;22.56;54.15;101484.88;4884743;29;45531;-82
2021/07/01 14:49:15;;;;;;;;;16.33;15.67;;;;;22.54;54.88;101480.47;4883887;29;46135;-82
2021/07/01 14:51:55;;;;;;;;;19.67;17.33;;;;;22.52;55.09;101479.63;4884513;29;45632;-82
2021/07/01 14:54:26;;;;;;;;;13.67;13.33;;;;;22.51;55.46;101476.06;4884798;29;45173;-81
2021/07/01 14:57:03;;;;;;;;;14.33;13.33;;;;;22.52;55.87;101477.84;4884475;29;45445;-81
2021/07/01 14:59:46;;;;;;;;;15.00;13.67;;;;;22.53;55.54;101474.22;4883814;29;46207;-81
2021/07/01 15:02:13;;;;;;;;;17.00;13.67;;;;;22.53;56.20;101476.91;4884380;29;45450;-81
2021/07/01 15:04:41;;;;;;;;;18.00;16.00;;;;;22.54;56.06;101469.75;4884574;29;45346;-82
2021/07/01 15:07:14;;;;;;;;;20.67;16.67;;;;;22.53;55.32;101471.53;4884575;29;45228;-83
2021/07/01 15:09:54;;;;;;;;;17.00;17.00;;;;;22.55;54.84;101475.06;4883948;29;46257;-82
2021/07/01 15:12:25;;;;;;;;;18.00;17.00;;;;;22.54;55.73;101470.66;4884149;29;45379;-82
2021/07/01 15:14:57;;;;;;;;;17.00;16.00;;;;;22.55;56.64;101464.34;4884297;29;45237;-83
2021/07/01 15:17:34;;;;;;;;;15.33;14.67;;;;;22.56;55.68;101479.53;4884541;29;45389;-82
2021/07/01 15:20:00;;;;;;;;;18.00;16.67;;;;;22.51;56.10;101464.44;4874218;29;45407;-82
2021/07/01 15:22:26;;;;;;;;;15.33;13.33;;;;;22.50;56.10;101457.34;4865126;29;45192;-81
2021/07/01 15:24:53;;;;;;;;;15.33;15.00;;;;;22.50;55.92;101460.91;4865299;29;45218;-83
2021/07/01 15:27:20;;;;;;;;;15.67;15.67;;;;;22.50;56.12;101450.19;4865625;29;45314;-83
2021/07/01 15:29:45;;;;;;;;;19.67;17.00;;;;;22.51;55.43;101457.31;4865117;29;46430;-80
2021/07/01 15:32:11;;;;;;;;;19.67;17.67;;;;;22.51;55.40;101451.94;4863788;29;45449;-81
2021/07/01 15:34:36;;;;;;;;;19.00;19.00;;;;;22.49;55.94;101459.13;4864315;29;45352;-81
2021/07/01 15:37:02;;;;;;;;;19.33;16.00;;;;;22.48;56.08;101459.16;4865468;29;45439;-82
2021/07/01 15:39:28;;;;;;;;;14.33;14.00;;;;;22.47;55.97;101450.25;4864918;29;45491;-81
2021/07/01 15:41:54;;;;;;;;;18.00;15.33;;;;;22.47;56.36;101449.34;4864915;29;45316;-81
2021/07/01 15:44:21;;;;;;;;;17.00;14.00;;;;;22.44;55.03;101439.63;4879872;29;45196;-81
2021/07/01 15:46:47;;;;;;;;;19.33;14.67;;;;;22.43;55.57;101449.44;4883850;29;45542;-82
2021/07/01 15:49:14;;;;;;;;;18.00;15.00;;;;;22.44;55.85;101447.66;4883187;29;46449;-81
2021/07/01 15:51:41;;;;;;;;;15.67;14.00;;;;;22.44;55.36;101436.94;4883560;29;45233;-82
2021/07/01 15:54:06;;;;;;;;;18.33;15.33;;;;;22.39;55.18;101430.78;4883642;29;45411;-81
2021/07/01 15:56:46;;;;;;;;;16.00;16.00;;;;;22.39;55.28;101444.16;4884023;29;45277;-82
2021/07/01 15:59:30;;;;;;;;;18.33;14.00;;;;;22.38;56.25;101435.25;4883324;29;46105;-81
2021/07/01 16:01:58;;;;;;;;;14.00;13.67;;;;;22.39;55.78;101442.38;4883413;29;45454;-82
2021/07/01 16:04:26;;;;;;;;;16.33;16.00;;;;;22.42;55.86;101441.44;4881900;29;45204;-82
2021/07/01 16:06:52;;;;;;;;;15.00;15.00;;;;;22.38;56.30;101440.59;4883277;29;45641;-82
2021/07/01 16:09:19;;;;;;;;;18.00;16.00;;;;;22.39;55.65;101438.81;4883566;29;45283;-83
2021/07/01 16:11:45;;;;;;;;;16.33;16.33;;;;;22.36;55.82;101438.91;4881867;29;45455;-82
2021/07/01 16:14:12;;;;;;;;;17.33;14.00;;;;;22.39;57.25;101438.81;4883729;29;45264;-83
2021/07/01 16:16:38;;;;;;;;;17.33;15.67;;;;;22.36;57.12;101434.41;4882787;29;45387;-81
2021/07/01 16:19:05;;;;;;;;;16.00;14.67;;;;;22.31;57.24;101426.47;4881992;29;45368;-80
2021/07/01 16:21:36;;;;;;;;;20.00;17.00;;;;;22.35;56.89;101431.75;4882946;29;45338;-79
2021/07/01 16:24:04;;;;;;;;;18.33;15.33;;;;;22.36;56.02;101425.50;4883278;29;45259;-81
2021/07/01 16:26:31;;;;;;;;;14.67;13.67;;;;;22.35;56.39;101421.94;4883277;29;45201;-83
2021/07/01 16:28:57;;;;;;;;;19.00;18.33;;;;;22.34;56.42;101420.16;4883167;29;45323;-82
2021/07/01 16:31:27;;;;;;;;;22.00;16.67;;;;;22.31;56.49;101423.81;4883022;29;45506;-83
2021/07/01 16:33:52;;;;;;;;;21.00;20.33;;;;;22.30;56.10;101434.53;4882999;29;45402;-84
2021/07/01 16:36:18;;;;;;;;;16.67;16.33;;;;;22.28;56.21;101421.19;4883267;29;45245;-83
2021/07/01 16:38:43;;;;;;;;;21.67;18.00;;;;;22.25;56.48;101429.25;4883086;29;46367;-83
2021/07/01 16:41:10;;;;;;;;;16.00;12.00;;;;;22.26;56.17;101433.72;4881274;29;45261;-84
2021/07/01 16:43:36;;;;;;;;;13.00;12.33;;;;;22.27;55.70;101423.91;4883072;29;45393;-83